« Back
NWS Peachtree City, Ga » Text Product » AHN Terminal Aerodrome Forecast


Printer-friendly Version
Current Version              Previous Versions:   1  2  3  4  5  6  7  8  9  

Terminal Aerodrome Forecast

276
FTUS42 KFFC 011900 AAA
TAFAHN
TAF AMD
KAHN 011942Z 0120/0218 24007KT P6SM SCT050 SCT150
      TEMPO 0120/0122 VRB10KT 5SM -TSRA BKN040CB
     FM020100 20003KT P6SM FEW060 SCT150
     FM021400 29005KT P6SM SCT035 SCT150=

USA.gov is the U.S. government's official web portal to all federal, state and local government web resources and services.